Time;durP1;ratioP1;P1;durP2;ratioP2;P2;SDS_P1;SDS_P2;PMS_P1;PMS_P2;Temp;Humidity;BMP_temperature;BMP_pressure;BME280_temperature;BME280_humidity;BME280_pressure;Samples;Min_cycle;Max_cycle;Signal;HPM_P1;HPM_P2
2021/04/21 00:00:43;;;;;;;4.13;1.43;;;17.70;91.00;;;;;;5052475;28;20253;-68
2021/04/21 00:03:11;;;;;;;2.73;0.73;;;17.70;90.90;;;;;;5053350;28;20187;-68
2021/04/21 00:05:39;;;;;;;3.97;0.90;;;17.80;90.90;;;;;;5053132;28;20219;-71
2021/04/21 00:08:09;;;;;;;4.27;1.40;;;18.00;90.90;;;;;;5053667;28;20638;-68
2021/04/21 00:10:37;;;;;;;5.20;0.67;;;18.20;90.50;;;;;;5045543;28;20245;-76
2021/04/21 00:13:11;;;;;;;3.70;1.23;;;18.40;90.40;;;;;;5055034;28;20664;-71
2021/04/21 00:15:38;;;;;;;2.93;0.80;;;18.40;89.70;;;;;;5045830;28;20179;-74
2021/04/21 00:18:08;;;;;;;4.40;0.77;;;18.30;90.40;;;;;;5053265;28;20251;-75
2021/04/21 00:20:36;;;;;;;2.33;0.70;;;18.30;90.10;;;;;;5045421;28;20187;-74
2021/04/21 00:23:10;;;;;;;2.03;0.70;;;18.30;90.00;;;;;;5051867;28;20525;-76
2021/04/21 00:25:38;;;;;;;3.50;0.80;;;18.40;90.10;;;;;;5053533;28;20194;-78
2021/04/21 00:28:08;;;;;;;4.00;0.70;;;18.50;90.00;;;;;;5052210;28;20198;-79
2021/04/21 00:30:37;;;;;;;3.63;0.90;;;18.60;90.00;;;;;;5053035;28;20232;-73
2021/04/21 00:33:06;;;;;;;1.47;0.70;;;18.80;90.00;;;;;;5053733;28;20587;-77
2021/04/21 00:35:41;;;;;;;5.87;0.90;;;18.90;89.50;;;;;;5051758;28;20184;-77
2021/04/21 00:38:18;;;;;;;2.67;1.00;;;19.10;89.80;;;;;;5052796;28;20203;-81
2021/04/21 00:40:45;;;;;;;1.93;0.77;;;19.30;88.90;;;;;;5048238;28;20579;-75
2021/04/21 00:43:27;;;;;;;3.50;0.87;;;19.10;88.40;;;;;;5050930;28;20215;-73
2021/04/21 00:46:07;;;;;;;5.90;1.13;;;18.60;89.40;;;;;;5052316;28;20594;-73
2021/04/21 00:49:02;;;;;;;6.23;0.80;;;18.70;89.80;;;;;;5049222;28;20184;-74
2021/04/21 00:51:53;;;;;;;3.47;0.70;;;18.70;88.50;;;;;;5049904;28;20234;-71
2021/04/21 00:54:30;;;;;;;1.17;0.50;;;18.80;89.10;;;;;;5048098;28;20191;-79
2021/04/21 00:57:03;;;;;;;1.80;0.60;;;18.70;87.70;;;;;;5052601;28;20278;-70
2021/04/21 00:59:52;;;;;;;2.93;0.73;;;18.50;89.20;;;;;;5048786;28;20243;-70
2021/04/21 01:02:28;;;;;;;3.63;0.83;;;18.70;88.50;;;;;;5051438;28;20176;-71
2021/04/21 01:04:59;;;;;;;5.40;0.97;;;19.00;88.60;;;;;;5051034;28;20179;-69
2021/04/21 01:07:28;;;;;;;5.43;0.87;;;19.10;88.20;;;;;;5051598;28;20587;-70
2021/04/21 01:09:59;;;;;;;3.30;0.70;;;19.40;87.40;;;;;;5051312;28;20210;-70
2021/04/21 01:12:30;;;;;;;1.60;0.87;;;19.50;86.60;;;;;;5048290;28;20708;-69
2021/04/21 01:14:59;;;;;;;2.23;0.70;;;19.60;86.60;;;;;;5050626;28;20274;-68
2021/04/21 01:17:27;;;;;;;1.73;0.70;;;19.70;85.40;;;;;;5047663;28;20191;-69
2021/04/21 01:20:00;;;;;;;2.03;0.60;;;19.70;83.90;;;;;;5050271;28;20259;-70
2021/04/21 01:23:19;;;;;;;2.63;0.70;;;20.00;83.50;;;;;;5047655;28;20183;-69
2021/04/21 01:26:11;;;;;;;2.57;0.60;;;20.20;83.80;;;;;;5037892;28;20531;-69
2021/04/21 01:28:47;;;;;;;6.90;1.03;;;20.20;83.90;;;;;;5051017;28;20188;-72
2021/04/21 01:31:17;;;;;;;4.80;1.03;;;19.80;84.70;;;;;;5051407;28;20285;-69
2021/04/21 01:33:48;;;;;;;3.57;0.97;;;19.50;84.60;;;;;;5047846;28;20188;-69
2021/04/21 01:36:23;;;;;;;1.90;0.80;;;19.30;85.10;;;;;;5043049;28;20258;-70
2021/04/21 01:38:53;;;;;;;2.03;0.90;;;19.30;85.00;;;;;;5051774;28;20257;-72
2021/04/21 01:41:28;;;;;;;1.67;0.60;;;19.70;84.50;;;;;;5051568;28;20180;-71
2021/04/21 01:44:09;;;;;;;2.20;0.80;;;20.30;84.10;;;;;;5048830;28;20237;-70
2021/04/21 01:46:44;;;;;;;2.77;0.73;;;20.50;82.20;;;;;;5049219;28;20223;-69
2021/04/21 01:49:25;;;;;;;4.27;0.80;;;20.10;82.80;;;;;;5052109;28;20175;-69
2021/04/21 01:52:07;;;;;;;3.40;0.80;;;19.90;84.10;;;;;;5048829;28;20586;-72
2021/04/21 01:54:38;;;;;;;2.83;0.60;;;19.90;84.10;;;;;;5048921;28;20643;-71
2021/04/21 01:57:19;;;;;;;4.53;0.60;;;20.00;83.80;;;;;;5049675;28;20187;-72
2021/04/21 01:59:52;;;;;;;6.57;0.63;;;20.00;83.10;;;;;;5051117;28;20307;-72
2021/04/21 02:02:22;;;;;;;2.53;0.70;;;20.50;80.60;;;;;;5050748;28;20176;-74
2021/04/21 02:04:58;;;;;;;3.53;0.80;;;20.60;77.70;;;;;;5050692;28;20195;-77
2021/04/21 02:08:02;;;;;;;4.97;0.70;;;20.40;77.50;;;;;;5051565;28;20179;-71
2021/04/21 02:10:34;;;;;;;2.70;0.80;;;20.20;77.90;;;;;;5047067;28;20549;-73
2021/04/21 02:13:08;;;;;;;3.80;0.80;;;19.90;78.50;;;;;;5048695;28;20249;-72
2021/04/21 02:16:19;;;;;;;1.77;0.60;;;19.70;79.90;;;;;;5049640;28;20203;-76
2021/04/21 02:18:52;;;;;;;5.47;0.97;;;19.40;80.50;;;;;;5008997;28;20244;-70
2021/04/21 02:21:24;;;;;;;4.63;1.10;;;19.40;81.30;;;;;;5051148;28;20216;-76
2021/04/21 02:24:18;;;;;;;2.77;0.90;;;20.20;78.20;;;;;;5055618;28;20188;-75
2021/04/21 02:27:22;;;;;;;3.87;0.87;;;20.80;76.50;;;;;;5054266;28;20192;-78
2021/04/21 02:30:09;;;;;;;7.43;1.33;;;20.80;76.60;;;;;;5054309;28;20222;-76
2021/04/21 02:32:50;;;;;;;4.23;1.07;;;21.40;76.50;;;;;;5054548;28;20199;-83
2021/04/21 02:35:46;;;;;;;3.57;1.30;;;21.60;74.90;;;;;;5055583;28;20650;-70
2021/04/21 02:38:32;;;;;;;3.20;1.07;;;21.90;74.90;;;;;;5047807;28;20219;-76
2021/04/21 02:41:26;;;;;;;4.10;1.10;;;22.20;74.00;;;;;;5054729;28;20190;-75
2021/04/21 02:44:11;;;;;;;5.03;1.00;;;22.80;72.80;;;;;;5054509;28;20551;-71
2021/04/21 02:46:48;;;;;;;4.40;0.73;;;22.80;70.90;;;;;;5051179;28;20547;-77
2021/04/21 02:49:39;;;;;;;4.13;0.90;;;23.20;71.40;;;;;;5054294;28;20184;-74
2021/04/21 02:52:15;;;;;;;5.30;0.87;;;23.10;70.10;;;;;;5050404;28;20217;-79
2021/04/21 02:55:39;;;;;;;3.07;0.87;;;23.40;70.00;;;;;;5051326;28;20187;-72
2021/04/21 02:58:26;;;;;;;4.87;1.00;;;23.10;69.90;;;;;;4995794;28;20221;-83
2021/04/21 03:01:16;;;;;;;4.67;1.00;;;23.10;68.60;;;;;;5004422;28;20190;-78
2021/04/21 03:04:13;;;;;;;4.00;1.00;;;23.20;68.80;;;;;;5038898;28;20196;-78
2021/04/21 03:06:53;;;;;;;6.00;0.70;;;23.40;68.90;;;;;;5053593;28;20191;-76
2021/04/21 03:09:50;;;;;;;3.03;0.70;;;23.40;68.60;;;;;;5054213;28;20206;-77
2021/04/21 03:12:24;;;;;;;4.27;0.80;;;23.50;67.80;;;;;;5050313;28;20548;-76
2021/04/21 03:14:58;;;;;;;4.67;0.60;;;23.70;67.50;;;;;;5054679;28;20771;-79
2021/04/21 03:17:26;;;;;;;6.30;0.80;;;23.80;67.60;;;;;;5055542;28;20275;-83
2021/04/21 03:20:08;;;;;;;3.43;0.70;;;23.80;67.00;;;;;;5055020;28;20302;-74
2021/04/21 03:22:38;;;;;;;7.63;0.83;;;23.60;66.90;;;;;;5051612;28;20526;-75
2021/04/21 03:25:21;;;;;;;5.03;0.93;;;24.00;66.60;;;;;;5055100;28;20187;-76
2021/04/21 03:27:57;;;;;;;2.77;0.90;;;24.10;66.60;;;;;;5054517;28;20222;-78
2021/04/21 03:30:28;;;;;;;3.57;0.73;;;24.10;65.40;;;;;;5054394;28;20746;-82
2021/04/21 03:33:08;;;;;;;3.20;0.70;;;23.90;66.10;;;;;;5054568;28;20184;-72
2021/04/21 03:35:37;;;;;;;4.70;0.67;;;23.90;66.30;;;;;;5054051;28;20184;-78
2021/04/21 03:38:09;;;;;;;2.03;0.70;;;24.00;66.00;;;;;;5054331;28;20286;-77
2021/04/21 03:40:38;;;;;;;1.33;0.70;;;24.20;65.80;;;;;;5048999;28;20184;-75
2021/04/21 03:43:07;;;;;;;6.53;0.90;;;24.10;66.00;;;;;;5052592;28;20175;-77
2021/04/21 03:45:36;;;;;;;4.90;0.90;;;24.60;65.90;;;;;;5054284;28;20660;-75
2021/04/21 03:48:04;;;;;;;4.60;0.90;;;24.90;64.60;;;;;;5052945;28;20226;-77
2021/04/21 03:50:32;;;;;;;6.13;1.10;;;24.90;64.70;;;;;;5054133;28;20281;-75
2021/04/21 03:53:09;;;;;;;4.50;0.97;;;24.70;65.20;;;;;;5053918;28;20187;-74
2021/04/21 03:55:38;;;;;;;4.37;0.70;;;24.80;65.60;;;;;;5053967;28;20188;-74
2021/04/21 03:58:10;;;;;;;4.27;0.83;;;24.60;65.80;;;;;;5052116;28;20654;-75
2021/04/21 04:00:41;;;;;;;3.30;0.63;;;24.90;65.90;;;;;;5050374;28;20203;-76
2021/04/21 04:03:28;;;;;;;2.07;0.80;;;25.00;65.70;;;;;;5052711;28;20184;-76
2021/04/21 04:06:10;;;;;;;2.17;0.60;;;24.80;66.60;;;;;;5045776;28;20211;-74
2021/04/21 04:08:49;;;;;;;6.30;1.33;;;24.80;66.70;;;;;;5048172;28;20307;-77
2021/04/21 04:11:22;;;;;;;6.83;1.20;;;24.80;67.20;;;;;;5051613;28;20180;-68
2021/04/21 04:13:56;;;;;;;4.17;0.90;;;24.70;68.00;;;;;;5051584;28;20263;-74
2021/04/21 04:16:24;;;;;;;2.57;0.80;;;25.30;67.20;;;;;;5052523;28;20187;-72
2021/04/21 04:18:54;;;;;;;6.60;0.77;;;25.20;67.50;;;;;;5047597;28;20354;-76
2021/04/21 04:21:27;;;;;;;4.73;0.90;;;24.80;67.80;;;;;;5052952;28;20184;-72
2021/04/21 04:23:58;;;;;;;2.93;0.90;;;24.70;67.90;;;;;;5049782;28;20627;-72
2021/04/21 04:26:28;;;;;;;3.53;0.80;;;25.10;67.70;;;;;;5052595;28;20199;-75
2021/04/21 04:28:57;;;;;;;4.13;0.90;;;25.40;67.40;;;;;;5052812;28;20537;-74
2021/04/21 04:31:25;;;;;;;4.03;0.80;;;25.10;67.00;;;;;;5048452;28;20223;-73
2021/04/21 04:33:57;;;;;;;2.47;0.70;;;25.00;67.60;;;;;;5051489;28;20659;-74
2021/04/21 04:36:26;;;;;;;5.03;0.93;;;25.50;66.90;;;;;;5050823;28;20187;-71
2021/04/21 04:38:54;;;;;;;4.60;1.00;;;25.70;66.00;;;;;;5050415;28;20565;-70
2021/04/21 04:41:22;;;;;;;6.73;0.97;;;25.70;66.10;;;;;;5052375;28;20191;-70
2021/04/21 04:43:50;;;;;;;4.60;0.97;;;25.30;65.80;;;;;;5052108;28;20192;-71
2021/04/21 04:46:20;;;;;;;5.70;0.90;;;25.80;66.20;;;;;;5051147;28;20179;-75
2021/04/21 04:49:16;;;;;;;4.23;0.80;;;25.60;65.30;;;;;;5050181;28;20291;-74
2021/04/21 04:51:46;;;;;;;2.90;0.70;;;25.10;66.10;;;;;;5050275;28;20180;-74
2021/04/21 04:54:15;;;;;;;6.83;1.00;;;25.10;66.80;;;;;;5051931;28;20681;-72
2021/04/21 04:56:48;;;;;;;3.03;0.93;;;25.10;66.90;;;;;;5051621;28;20237;-74
2021/04/21 04:59:17;;;;;;;3.43;1.00;;;25.30;67.70;;;;;;5048787;28;20204;-74
2021/04/21 05:02:01;;;;;;;2.23;0.77;;;25.50;67.40;;;;;;5051858;28;20176;-71
2021/04/21 05:04:46;;;;;;;7.30;1.40;;;25.60;67.50;;;;;;5049805;28;20232;-73
2021/04/21 05:07:19;;;;;;;8.07;1.53;;;25.40;67.40;;;;;;5050227;28;20191;-71
2021/04/21 05:09:51;;;;;;;2.30;0.70;;;25.90;66.40;;;;;;5047661;28;20191;-77
2021/04/21 05:12:21;;;;;;;5.13;1.00;;;25.50;65.70;;;;;;5051558;28;20298;-70
2021/04/21 05:14:53;;;;;;;8.10;1.87;;;25.40;66.80;;;;;;5050158;28;20550;-70
2021/04/21 05:17:38;;;;;;;4.20;1.07;;;25.20;67.70;;;;;;5049507;28;20179;-69
2021/04/21 05:20:34;;;;;;;5.80;0.90;;;25.50;67.20;;;;;;5052306;28;20196;-70
2021/04/21 05:23:31;;;;;;;4.13;1.07;;;26.00;66.50;;;;;;5066376;28;20180;-68
2021/04/21 05:26:24;;;;;;;4.47;1.00;;;25.90;65.20;;;;;;5047837;28;20191;-70
2021/04/21 05:29:06;;;;;;;6.53;1.00;;;26.30;65.70;;;;;;5047280;28;20233;-72
2021/04/21 05:31:57;;;;;;;3.93;1.07;;;26.30;66.30;;;;;;5051628;28;20227;-70
2021/04/21 05:34:42;;;;;;;5.77;1.50;;;26.10;65.80;;;;;;5048378;28;20534;-73
2021/04/21 05:37:28;;;;;;;7.37;1.10;;;26.30;65.50;;;;;;5049733;28;20546;-71
2021/04/21 05:40:31;;;;;;;7.07;1.03;;;26.40;65.60;;;;;;5067626;28;20219;-71
2021/04/21 05:43:39;;;;;;;6.07;1.23;;;26.00;65.80;;;;;;5051010;28;20188;-75
2021/04/21 05:46:24;;;;;;;5.67;1.00;;;25.70;66.20;;;;;;5048071;28;20197;-69
2021/04/21 05:49:22;;;;;;;4.73;1.00;;;25.10;67.90;;;;;;5049159;28;20215;-68
2021/04/21 05:52:03;;;;;;;5.63;0.80;;;25.10;68.30;;;;;;5051032;28;20246;-69
2021/04/21 05:55:07;;;;;;;5.00;0.80;;;24.70;68.50;;;;;;5050808;28;20188;-72
2021/04/21 05:58:04;;;;;;;7.20;1.10;;;24.90;68.70;;;;;;5046016;28;20580;-69
2021/04/21 06:01:08;;;;;;;5.60;1.30;;;25.70;67.60;;;;;;5050457;28;20184;-69
2021/04/21 06:03:39;;;;;;;9.00;0.80;;;25.50;67.00;;;;;;5047550;28;20697;-71
2021/04/21 06:06:06;;;;;;;6.87;1.00;;;25.50;67.10;;;;;;5051735;28;20545;-72
2021/04/21 06:08:34;;;;;;;5.63;1.07;;;25.50;67.90;;;;;;5052060;28;20212;-71
2021/04/21 06:11:02;;;;;;;2.50;0.83;;;25.10;68.50;;;;;;5050468;28;20704;-72
2021/04/21 06:13:35;;;;;;;4.07;0.90;;;24.90;68.80;;;;;;5051786;28;20191;-70
2021/04/21 06:16:03;;;;;;;5.50;1.43;;;24.70;68.50;;;;;;5052153;28;20235;-74
2021/04/21 06:18:30;;;;;;;6.63;1.40;;;24.40;68.90;;;;;;5050077;28;20212;-80
2021/04/21 06:20:58;;;;;;;7.13;1.00;;;24.10;69.80;;;;;;5051751;28;20180;-69
2021/04/21 06:23:29;;;;;;;19.07;4.40;;;23.90;70.20;;;;;;5050533;28;20199;-72
2021/04/21 06:26:04;;;;;;;6.03;1.00;;;23.50;71.00;;;;;;5051710;28;20425;-70
2021/04/21 06:28:31;;;;;;;2.77;1.10;;;22.60;72.60;;;;;;5050927;28;20194;-71
2021/04/21 06:31:10;;;;;;;12.23;3.83;;;22.30;74.20;;;;;;5051372;28;20587;-70
2021/04/21 06:33:45;;;;;;;8.73;5.20;;;22.10;74.30;;;;;;5041727;28;20194;-72
2021/04/21 06:36:14;;;;;;;9.77;3.57;;;21.60;75.10;;;;;;5051887;28;20194;-70
2021/04/21 06:38:43;;;;;;;9.60;2.00;;;21.40;76.20;;;;;;5049032;28;20298;-69
2021/04/21 06:41:11;;;;;;;9.47;1.57;;;21.10;77.10;;;;;;5051367;28;20180;-71
2021/04/21 06:43:39;;;;;;;7.87;1.50;;;20.90;77.80;;;;;;5048692;28;20199;-72
2021/04/21 06:46:10;;;;;;;5.63;1.17;;;20.60;77.90;;;;;;5047534;28;20206;-76
2021/04/21 06:48:39;;;;;;;3.57;1.20;;;20.30;79.00;;;;;;5044267;28;20207;-71
2021/04/21 06:51:17;;;;;;;9.47;1.30;;;20.20;79.10;;;;;;5046023;28;20230;-73
2021/04/21 06:53:47;;;;;;;8.07;1.73;;;20.40;78.70;;;;;;5044557;28;20262;-71
2021/04/21 06:56:16;;;;;;;3.43;1.00;;;20.30;79.50;;;;;;5048736;28;20279;-69
2021/04/21 06:58:43;;;;;;;5.07;1.10;;;20.10;80.20;;;;;;5048422;28;20525;-70
2021/04/21 07:01:16;;;;;;;4.23;1.30;;;20.10;80.20;;;;;;5049309;28;20223;-71
2021/04/21 07:03:44;;;;;;;4.70;1.33;;;19.80;79.80;;;;;;5047954;28;20245;-71
2021/04/21 07:06:13;;;;;;;5.67;1.43;;;19.70;80.10;;;;;;5050104;28;20191;-69
2021/04/21 07:08:40;;;;;;;4.43;1.30;;;19.60;80.90;;;;;;5048231;28;20555;-68
2021/04/21 07:11:11;;;;;;;2.67;1.07;;;19.40;80.90;;;;;;5049498;28;20519;-68
2021/04/21 07:13:49;;;;;;;6.80;1.53;;;19.40;81.30;;;;;;5053023;28;20522;-69
2021/04/21 07:16:18;;;;;;;4.73;1.57;;;19.40;81.80;;;;;;5048460;28;20184;-68
2021/04/21 07:18:59;;;;;;;5.93;1.30;;;19.20;82.20;;;;;;5051690;28;20216;-69
2021/04/21 07:21:29;;;;;;;3.77;1.20;;;19.20;82.70;;;;;;5049681;28;20259;-69
2021/04/21 07:24:00;;;;;;;4.43;1.40;;;19.00;82.30;;;;;;5053267;28;21104;-69
2021/04/21 07:26:35;;;;;;;3.40;1.50;;;19.00;82.00;;;;;;5052284;28;20184;-69
2021/04/21 07:29:03;;;;;;;10.20;1.80;;;18.90;82.50;;;;;;5051220;28;20662;-73
2021/04/21 07:31:37;;;;;;;6.43;2.10;;;18.80;82.80;;;;;;5052714;28;20251;-73
2021/04/21 07:34:04;;;;;;;5.77;1.50;;;18.70;82.60;;;;;;5052360;28;20197;-68
2021/04/21 07:36:48;;;;;;;5.30;1.80;;;18.70;82.50;;;;;;5050096;28;20180;-70
2021/04/21 07:39:16;;;;;;;3.67;1.43;;;18.70;82.70;;;;;;5048878;28;20228;-68
2021/04/21 07:41:51;;;;;;;2.13;1.13;;;18.60;82.50;;;;;;5050524;28;20214;-70
2021/04/21 07:44:55;;;;;;;5.70;1.43;;;18.60;83.00;;;;;;5053929;28;20180;-75
2021/04/21 07:47:26;;;;;;;2.60;1.17;;;18.50;83.20;;;;;;5026335;28;20203;-74
2021/04/21 07:49:59;;;;;;;7.90;1.47;;;18.40;83.80;;;;;;5055301;28;20274;-71
2021/04/21 07:52:29;;;;;;;9.97;1.83;;;18.30;83.70;;;;;;5055511;28;20191;-69
2021/04/21 07:55:13;;;;;;;4.10;1.47;;;18.30;83.80;;;;;;5053075;28;20233;-75
2021/04/21 07:57:44;;;;;;;4.80;1.50;;;18.30;84.30;;;;;;5052304;28;20280;-75
2021/04/21 08:00:33;;;;;;;3.83;1.70;;;18.20;84.50;;;;;;5047174;28;20198;-76
2021/04/21 08:03:00;;;;;;;7.10;1.70;;;18.20;84.80;;;;;;5048021;28;20227;-73
2021/04/21 08:05:28;;;;;;;4.83;1.60;;;18.20;84.90;;;;;;5051268;28;20631;-76
2021/04/21 08:07:59;;;;;;;7.80;1.67;;;18.10;85.70;;;;;;5054083;28;20187;-77
2021/04/21 08:10:33;;;;;;;3.60;1.63;;;18.10;86.40;;;;;;5050593;28;20271;-74
2021/04/21 08:13:01;;;;;;;11.70;1.80;;;18.10;87.00;;;;;;5046937;28;20187;-76
2021/04/21 08:15:31;;;;;;;5.13;1.67;;;18.00;87.80;;;;;;5051385;28;20290;-73
2021/04/21 08:18:06;;;;;;;5.57;1.83;;;17.90;89.10;;;;;;5050936;28;20176;-77
2021/04/21 08:20:43;;;;;;;3.40;1.27;;;17.90;90.00;;;;;;5052461;28;20191;-78
2021/04/21 08:23:11;;;;;;;4.10;1.57;;;17.90;90.30;;;;;;5053154;28;20187;-81
2021/04/21 08:25:39;;;;;;;6.23;1.50;;;17.90;90.60;;;;;;5052325;28;20225;-75
2021/04/21 08:28:06;;;;;;;9.03;1.67;;;17.90;90.70;;;;;;5052637;28;20187;-78
2021/04/21 08:30:34;;;;;;;7.93;1.60;;;17.90;90.90;;;;;;5053250;28;20700;-72
2021/04/21 08:33:02;;;;;;;7.20;2.20;;;17.80;91.10;;;;;;5052758;28;20666;-74
2021/04/21 08:35:30;;;;;;;5.07;1.93;;;17.80;91.30;;;;;;5054022;28;20538;-78
2021/04/21 08:37:57;;;;;;;5.60;1.93;;;17.80;91.60;;;;;;5053013;28;20700;-74
2021/04/21 08:40:27;;;;;;;7.13;1.43;;;17.80;91.70;;;;;;5053253;28;20232;-73
2021/04/21 08:43:02;;;;;;;2.67;1.23;;;17.80;91.70;;;;;;5053505;28;20184;-79
2021/04/21 08:45:29;;;;;;;5.70;1.73;;;17.80;91.80;;;;;;5049638;28;20604;-75
2021/04/21 08:47:57;;;;;;;6.43;1.90;;;17.80;92.00;;;;;;5052144;28;20210;-73
2021/04/21 08:50:28;;;;;;;6.40;1.80;;;17.70;92.10;;;;;;5052857;28;20180;-76
2021/04/21 08:53:02;;;;;;;6.27;2.00;;;17.60;92.40;;;;;;5048445;28;20180;-75
2021/04/21 08:55:31;;;;;;;6.40;2.20;;;17.60;92.30;;;;;;5053179;28;20273;-80
2021/04/21 08:57:59;;;;;;;6.53;2.73;;;17.60;92.40;;;;;;5053084;28;20540;-76
2021/04/21 09:00:27;;;;;;;7.73;2.10;;;17.50;92.80;;;;;;5052858;28;20221;-70
2021/04/21 09:02:54;;;;;;;7.63;2.87;;;17.50;93.00;;;;;;5052938;28;20180;-77
2021/04/21 09:05:22;;;;;;;6.87;1.87;;;17.50;93.10;;;;;;5042494;28;20211;-71
2021/04/21 09:07:49;;;;;;;8.30;2.33;;;17.50;93.50;;;;;;5052836;28;20184;-75
2021/04/21 09:10:19;;;;;;;7.90;2.13;;;17.40;93.80;;;;;;5052527;28;20238;-76
2021/04/21 09:12:47;;;;;;;9.83;2.53;;;17.40;94.10;;;;;;5052064;28;20225;-76
2021/04/21 09:15:16;;;;;;;7.53;2.30;;;17.40;94.40;;;;;;5052500;28;20275;-77
2021/04/21 09:17:51;;;;;;;8.10;2.30;;;17.30;94.50;;;;;;5052046;28;20534;-75
2021/04/21 09:20:22;;;;;;;15.93;3.17;;;17.30;94.90;;;;;;5050369;28;20198;-75
2021/04/21 09:23:16;;;;;;;7.90;2.70;;;17.30;95.10;;;;;;5052301;28;20182;-78
2021/04/21 09:25:46;;;;;;;10.03;2.53;;;17.30;95.10;;;;;;5051359;28;20700;-78
2021/04/21 09:28:14;;;;;;;7.07;1.77;;;17.30;95.20;;;;;;5050911;28;20195;-77
2021/04/21 09:30:45;;;;;;;3.90;1.50;;;17.30;95.30;;;;;;5048804;28;20567;-76
2021/04/21 09:33:12;;;;;;;8.13;2.87;;;17.20;95.60;;;;;;5048183;28;20187;-73
2021/04/21 09:35:45;;;;;;;7.90;2.30;;;17.20;95.80;;;;;;5052116;28;20187;-75
2021/04/21 09:38:17;;;;;;;7.70;2.63;;;17.20;96.20;;;;;;5055972;28;20244;-75
2021/04/21 09:40:57;;;;;;;8.43;2.60;;;17.20;96.30;;;;;;5057601;28;20221;-74
2021/04/21 09:43:28;;;;;;;8.90;2.40;;;17.10;96.40;;;;;;5053267;28;20190;-77
2021/04/21 09:46:04;;;;;;;8.80;2.50;;;17.00;96.60;;;;;;5055226;28;20188;-73
2021/04/21 09:48:36;;;;;;;10.93;2.30;;;17.00;96.80;;;;;;5057600;28;20183;-76
2021/04/21 09:51:16;;;;;;;7.33;2.50;;;17.00;96.90;;;;;;5049860;28;20176;-76
2021/04/21 09:53:51;;;;;;;5.90;2.37;;;17.10;97.20;;;;;;5056146;28;20183;-72
2021/04/21 09:56:22;;;;;;;11.83;3.10;;;17.10;97.10;;;;;;5056912;28;20372;-75
2021/04/21 09:58:55;;;;;;;8.27;2.40;;;17.10;97.30;;;;;;5057307;28;20224;-75
2021/04/21 10:01:30;;;;;;;7.83;2.57;;;17.10;97.20;;;;;;5051417;28;20175;-73
2021/04/21 10:04:25;;;;;;;9.30;3.43;;;17.20;97.30;;;;;;5049464;28;20175;-74
2021/04/21 10:06:58;;;;;;;8.17;3.07;;;17.10;97.40;;;;;;5048163;28;20222;-72
2021/04/21 10:09:40;;;;;;;7.83;2.50;;;17.10;97.70;;;;;;5050837;28;20187;-77
2021/04/21 10:12:19;;;;;;;11.57;2.63;;;17.10;97.90;;;;;;5053742;28;20232;-72
2021/04/21 10:15:08;;;;;;;5.63;2.30;;;17.10;98.20;;;;;;5051062;28;20211;-75
2021/04/21 10:17:41;;;;;;;8.13;1.93;;;17.00;98.60;;;;;;5051632;28;20175;-75
2021/04/21 10:20:11;;;;;;;10.47;2.03;;;16.90;99.20;;;;;;5050377;28;20219;-67
2021/04/21 10:22:40;;;;;;;6.47;2.00;;;17.00;99.60;;;;;;5046979;28;20195;-69
2021/04/21 10:25:09;;;;;;;8.47;1.87;;;16.90;99.80;;;;;;5050914;28;20547;-68
2021/04/21 10:27:37;;;;;;;12.60;2.03;;;17.00;99.90;;;;;;5048691;28;20176;-70
2021/04/21 10:30:07;;;;;;;9.10;2.10;;;16.90;99.90;;;;;;5056589;28;20265;-69
2021/04/21 10:32:35;;;;;;;8.67;2.03;;;16.90;99.90;;;;;;5048021;28;20238;-70
2021/04/21 10:35:04;;;;;;;14.10;2.23;;;16.90;99.90;;;;;;5051460;28;20179;-73
2021/04/21 10:37:36;;;;;;;10.93;1.90;;;16.90;99.90;;;;;;5050091;28;20317;-72
2021/04/21 10:40:05;;;;;;;8.33;1.70;;;16.80;99.90;;;;;;5049759;28;20249;-71
2021/04/21 10:42:47;;;;;;;5.37;1.90;;;16.80;99.90;;;;;;5054467;28;20194;-71
2021/04/21 10:45:18;;;;;;;11.80;1.90;;;16.80;99.90;;;;;;5054132;28;20524;-69
2021/04/21 10:47:48;;;;;;;13.47;2.30;;;16.80;99.90;;;;;;5054249;28;20187;-70
2021/04/21 10:50:45;;;;;;;7.60;1.70;;;16.90;99.90;;;;;;5054085;28;20184;-69
2021/04/21 10:53:28;;;;;;;6.70;1.57;;;16.80;99.90;;;;;;5052900;28;20543;-73
2021/04/21 10:55:55;;;;;;;11.87;2.50;;;16.80;99.90;;;;;;5053837;28;20180;-72
2021/04/21 10:58:23;;;;;;;6.97;2.23;;;16.80;99.90;;;;;;5054399;28;20211;-72
2021/04/21 11:00:51;;;;;;;7.37;2.03;;;16.80;99.90;;;;;;5053371;28;20191;-75
2021/04/21 11:03:20;;;;;;;7.13;3.07;;;16.90;99.90;;;;;;5055661;28;20219;-75
2021/04/21 11:05:57;;;;;;;10.80;3.20;;;16.80;99.90;;;;;;5054607;28;20226;-74
2021/04/21 11:08:30;;;;;;;6.57;1.97;;;16.80;99.90;;;;;;5050978;28;20182;-73
2021/04/21 11:11:06;;;;;;;4.83;1.70;;;16.70;99.90;;;;;;5054496;28;20184;-70
2021/04/21 11:13:36;;;;;;;5.13;1.80;;;16.60;99.90;;;;;;5055098;28;20219;-72
2021/04/21 11:16:13;;;;;;;7.73;1.80;;;16.50;99.90;;;;;;5054205;28;20672;-74
2021/04/21 11:18:43;;;;;;;7.20;1.80;;;16.40;99.90;;;;;;5054495;28;20211;-74
2021/04/21 11:21:12;;;;;;;5.17;1.87;;;16.40;99.90;;;;;;5053304;28;20216;-74
2021/04/21 11:24:14;;;;;;;13.77;1.80;;;16.30;99.90;;;;;;5054874;28;20638;-70
2021/04/21 11:26:49;;;;;;;10.13;2.37;;;16.30;99.90;;;;;;5041649;28;20194;-69
2021/04/21 11:29:28;;;;;;;4.87;1.90;;;16.20;99.90;;;;;;5054339;28;20521;-72
2021/04/21 11:31:55;;;;;;;4.67;1.83;;;16.10;99.90;;;;;;5048749;28;20646;-70
2021/04/21 11:34:34;;;;;;;13.83;3.00;;;16.10;99.90;;;;;;5053323;28;20180;-74
2021/04/21 11:37:17;;;;;;;6.73;1.57;;;16.10;99.90;;;;;;5054432;28;20187;-75
2021/04/21 11:39:49;;;;;;;6.07;2.10;;;16.10;99.90;;;;;;5053280;28;20297;-73
2021/04/21 11:42:28;;;;;;;5.13;2.20;;;16.00;99.90;;;;;;5052570;28;20196;-74
2021/04/21 11:45:06;;;;;;;10.90;2.30;;;15.90;99.90;;;;;;5051860;28;20184;-76
2021/04/21 11:47:48;;;;;;;6.10;1.87;;;15.90;99.90;;;;;;5052031;28;20187;-75
2021/04/21 11:50:18;;;;;;;9.83;2.37;;;15.80;99.90;;;;;;5052520;28;20187;-75
2021/04/21 11:53:00;;;;;;;8.43;2.50;;;15.70;99.90;;;;;;5049818;28;20208;-73
2021/04/21 11:58:32;;;;;;;9.27;2.70;;;15.70;99.90;;;;;;5053671;28;20571;-78
2021/04/21 12:01:07;;;;;;;4.77;2.10;;;15.60;99.90;;;;;;5068300;28;20182;-73
2021/04/21 12:03:45;;;;;;;7.63;2.80;;;15.50;99.90;;;;;;5046719;28;20225;-73
2021/04/21 12:06:15;;;;;;;7.37;2.90;;;15.40;99.90;;;;;;5052434;28;20948;-71
2021/04/21 12:08:51;;;;;;;8.83;2.73;;;15.40;99.90;;;;;;5054237;28;20211;-71
2021/04/21 12:11:38;;;;;;;7.50;2.70;;;15.40;99.90;;;;;;5049502;28;20626;-71
2021/04/21 12:14:06;;;;;;;16.37;3.27;;;15.30;99.90;;;;;;5053526;28;20282;-69
2021/04/21 12:16:36;;;;;;;13.10;3.40;;;15.30;99.90;;;;;;5052486;28;20620;-74
2021/04/21 12:19:06;;;;;;;9.97;2.57;;;15.30;99.90;;;;;;5052787;28;20597;-74
2021/04/21 12:21:41;;;;;;;12.57;3.43;;;15.30;99.90;;;;;;5048706;28;20192;-72
2021/04/21 12:24:10;;;;;;;5.50;2.70;;;15.30;99.90;;;;;;5052412;28;20241;-69
2021/04/21 12:26:41;;;;;;;12.53;3.23;;;15.20;99.90;;;;;;5052766;28;20236;-71
2021/04/21 12:29:14;;;;;;;6.00;3.00;;;15.20;99.90;;;;;;5050251;28;20192;-73
2021/04/21 12:31:43;;;;;;;8.40;3.07;;;15.20;99.90;;;;;;5056447;28;20219;-70
2021/04/21 12:34:21;;;;;;;16.03;5.10;;;15.10;99.90;;;;;;5057401;28;20195;-71
2021/04/21 12:36:50;;;;;;;8.67;3.43;;;15.10;99.90;;;;;;5047455;28;20188;-74
2021/04/21 12:39:22;;;;;;;10.97;3.57;;;15.10;99.90;;;;;;5050841;28;20242;-70
2021/04/21 12:41:57;;;;;;;8.40;3.03;;;15.10;99.90;;;;;;5053144;28;20585;-70
2021/04/21 12:44:42;;;;;;;10.77;2.67;;;15.00;99.90;;;;;;5052285;28;20175;-77
2021/04/21 12:47:11;;;;;;;9.37;2.97;;;15.00;99.90;;;;;;5051507;28;20176;-74
2021/04/21 12:49:47;;;;;;;11.87;3.10;;;14.90;99.90;;;;;;5052124;28;20181;-74
2021/04/21 12:52:28;;;;;;;9.80;3.30;;;14.90;99.90;;;;;;5048020;28;20592;-76
2021/04/21 12:54:56;;;;;;;6.47;2.93;;;14.90;99.90;;;;;;5050032;28;20657;-72
2021/04/21 12:57:24;;;;;;;10.23;2.80;;;14.80;99.90;;;;;;5049466;28;20184;-75
2021/04/21 12:59:59;;;;;;;8.80;3.03;;;14.80;99.90;;;;;;5053045;28;20219;-72
2021/04/21 13:02:42;;;;;;;6.67;3.03;;;14.70;99.90;;;;;;5051830;28;20185;-70
2021/04/21 13:05:12;;;;;;;7.90;2.77;;;14.70;99.90;;;;;;5052147;28;20205;-76
2021/04/21 13:07:39;;;;;;;11.63;3.30;;;14.70;99.90;;;;;;5050693;28;20182;-72
2021/04/21 13:10:09;;;;;;;8.87;3.10;;;14.70;99.90;;;;;;5052539;28;20179;-70
2021/04/21 13:12:37;;;;;;;8.17;2.53;;;14.70;99.90;;;;;;5051980;28;20186;-72
2021/04/21 13:15:12;;;;;;;10.53;2.77;;;14.60;99.90;;;;;;5052961;28;20277;-74
2021/04/21 13:17:49;;;;;;;12.20;2.90;;;14.60;99.90;;;;;;5052185;28;20233;-74
2021/04/21 13:20:17;;;;;;;10.03;2.90;;;14.50;99.90;;;;;;5052325;28;20596;-70
2021/04/21 13:22:45;;;;;;;9.77;2.20;;;14.40;99.90;;;;;;5052586;28;20180;-74
2021/04/21 13:25:19;;;;;;;9.37;2.20;;;14.40;99.90;;;;;;5051639;28;20195;-69
2021/04/21 13:27:46;;;;;;;7.73;2.70;;;14.40;99.90;;;;;;5052179;28;20176;-71
2021/04/21 13:30:22;;;;;;;7.00;2.33;;;14.40;99.90;;;;;;5052555;28;20241;-72